sensor_id;sensor_type;location;lat;lon;timestamp;temperature;humidity
70820;DHT22;58439;51.046;13.692;2023-02-17T00:02:19;9.70;86.00
70820;DHT22;58439;51.046;13.692;2023-02-17T00:04:51;9.70;86.00
70820;DHT22;58439;51.046;13.692;2023-02-17T00:08:18;9.70;85.90
70820;DHT22;58439;51.046;13.692;2023-02-17T00:10:54;9.70;86.00
70820;DHT22;58439;51.046;13.692;2023-02-17T00:14:10;9.70;86.00
70820;DHT22;58439;51.046;13.692;2023-02-17T00:17:03;9.60;86.10
70820;DHT22;58439;51.046;13.692;2023-02-17T00:19:36;9.70;86.40
70820;DHT22;58439;51.046;13.692;2023-02-17T00:22:40;9.60;86.30
70820;DHT22;58439;51.046;13.692;2023-02-17T00:25:52;9.70;86.00
70820;DHT22;58439;51.046;13.692;2023-02-17T00:28:50;9.70;85.70
70820;DHT22;58439;51.046;13.692;2023-02-17T00:31:50;9.80;85.40
70820;DHT22;58439;51.046;13.692;2023-02-17T00:36:05;9.80;85.00
70820;DHT22;58439;51.046;13.692;2023-02-17T00:39:32;9.90;84.30
70820;DHT22;58439;51.046;13.692;2023-02-17T00:42:26;9.90;83.90
70820;DHT22;58439;51.046;13.692;2023-02-17T00:45:35;9.90;83.40
70820;DHT22;58439;51.046;13.692;2023-02-17T00:48:32;9.90;83.50
70820;DHT22;58439;51.046;13.692;2023-02-17T00:51:31;9.80;83.70
70820;DHT22;58439;51.046;13.692;2023-02-17T00:54:51;9.80;83.80
70820;DHT22;58439;51.046;13.692;2023-02-17T01:01:53;9.70;84.10
70820;DHT22;58439;51.046;13.692;2023-02-17T01:04:50;9.80;83.80
70820;DHT22;58439;51.046;13.692;2023-02-17T01:08:19;9.80;83.50
70820;DHT22;58439;51.046;13.692;2023-02-17T01:11:34;9.90;83.20
70820;DHT22;58439;51.046;13.692;2023-02-17T01:27:46;9.80;83.10
70820;DHT22;58439;51.046;13.692;2023-02-17T01:30:38;9.80;83.00
70820;DHT22;58439;51.046;13.692;2023-02-17T01:34:00;9.80;83.20
70820;DHT22;58439;51.046;13.692;2023-02-17T01:37:00;9.90;83.10
70820;DHT22;58439;51.046;13.692;2023-02-17T01:40:08;9.90;82.80
70820;DHT22;58439;51.046;13.692;2023-02-17T01:42:51;9.90;82.90
70820;DHT22;58439;51.046;13.692;2023-02-17T01:48:30;10.00;83.10
70820;DHT22;58439;51.046;13.692;2023-02-17T01:55:41;10.00;83.30
70820;DHT22;58439;51.046;13.692;2023-02-17T01:59:31;10.10;83.60
70820;DHT22;58439;51.046;13.692;2023-02-17T02:06:10;10.00;84.70
70820;DHT22;58439;51.046;13.692;2023-02-17T02:33:52;10.00;87.20
70820;DHT22;58439;51.046;13.692;2023-02-17T02:45:53;10.00;86.80
70820;DHT22;58439;51.046;13.692;2023-02-17T02:48:53;10.00;86.90
70820;DHT22;58439;51.046;13.692;2023-02-17T02:52:27;10.00;87.10
70820;DHT22;58439;51.046;13.692;2023-02-17T03:04:21;9.50;91.70
70820;DHT22;58439;51.046;13.692;2023-02-17T03:25:19;9.80;91.10
70820;DHT22;58439;51.046;13.692;2023-02-17T03:28:28;9.80;91.30
70820;DHT22;58439;51.046;13.692;2023-02-17T03:32:09;9.80;91.30
70820;DHT22;58439;51.046;13.692;2023-02-17T03:35:01;9.80;91.20
70820;DHT22;58439;51.046;13.692;2023-02-17T03:43:25;9.80;91.20
70820;DHT22;58439;51.046;13.692;2023-02-17T03:46:45;9.90;91.10
70820;DHT22;58439;51.046;13.692;2023-02-17T03:56:23;9.90;91.40
70820;DHT22;58439;51.046;13.692;2023-02-17T03:59:25;9.90;91.40
70820;DHT22;58439;51.046;13.692;2023-02-17T04:03:03;9.90;91.70
70820;DHT22;58439;51.046;13.692;2023-02-17T04:13:59;9.80;92.60
70820;DHT22;58439;51.046;13.692;2023-02-17T04:18:05;9.60;93.50
70820;DHT22;58439;51.046;13.692;2023-02-17T04:29:16;8.60;99.90
70820;DHT22;58439;51.046;13.692;2023-02-17T04:43:52;8.30;99.90
70820;DHT22;58439;51.046;13.692;2023-02-17T04:47:36;8.30;99.90
70820;DHT22;58439;51.046;13.692;2023-02-17T04:52:03;8.30;99.90
70820;DHT22;58439;51.046;13.692;2023-02-17T04:55:29;8.30;99.90
70820;DHT22;58439;51.046;13.692;2023-02-17T05:02:18;8.40;99.90
70820;DHT22;58439;51.046;13.692;2023-02-17T05:10:12;8.50;99.90
70820;DHT22;58439;51.046;13.692;2023-02-17T05:13:40;8.50;99.90
70820;DHT22;58439;51.046;13.692;2023-02-17T05:20:46;8.50;99.90
70820;DHT22;58439;51.046;13.692;2023-02-17T05:24:43;8.40;99.90
70820;DHT22;58439;51.046;13.692;2023-02-17T05:27:53;8.40;99.90
70820;DHT22;58439;51.046;13.692;2023-02-17T05:31:34;8.30;99.90
70820;DHT22;58439;51.046;13.692;2023-02-17T05:34:47;8.30;99.90
70820;DHT22;58439;51.046;13.692;2023-02-17T05:37:48;8.30;99.90
70820;DHT22;58439;51.046;13.692;2023-02-17T05:44:00;8.40;99.90
70820;DHT22;58439;51.046;13.692;2023-02-17T05:51:48;8.60;99.90
70820;DHT22;58439;51.046;13.692;2023-02-17T05:54:54;8.70;99.90
70820;DHT22;58439;51.046;13.692;2023-02-17T05:58:07;8.70;99.90
70820;DHT22;58439;51.046;13.692;2023-02-17T06:00:59;8.80;99.90
70820;DHT22;58439;51.046;13.692;2023-02-17T06:04:28;8.80;99.90
70820;DHT22;58439;51.046;13.692;2023-02-17T06:08:10;8.90;99.90
70820;DHT22;58439;51.046;13.692;2023-02-17T06:14:25;9.00;99.90
70820;DHT22;58439;51.046;13.692;2023-02-17T06:17:08;9.00;99.90
70820;DHT22;58439;51.046;13.692;2023-02-17T06:20:10;9.00;99.90
70820;DHT22;58439;51.046;13.692;2023-02-17T06:22:55;9.20;99.90
70820;DHT22;58439;51.046;13.692;2023-02-17T06:26:16;9.30;99.90
70820;DHT22;58439;51.046;13.692;2023-02-17T06:29:07;9.50;99.90
70820;DHT22;58439;51.046;13.692;2023-02-17T06:35:54;9.70;99.90
70820;DHT22;58439;51.046;13.692;2023-02-17T06:43:31;9.60;99.90
70820;DHT22;58439;51.046;13.692;2023-02-17T06:50:13;9.60;99.90
70820;DHT22;58439;51.046;13.692;2023-02-17T06:52:41;9.60;99.90
70820;DHT22;58439;51.046;13.692;2023-02-17T06:55:08;9.70;99.90
70820;DHT22;58439;51.046;13.692;2023-02-17T06:57:36;9.70;99.90
70820;DHT22;58439;51.046;13.692;2023-02-17T07:00:03;9.70;99.80
70820;DHT22;58439;51.046;13.692;2023-02-17T07:02:31;9.70;99.60
70820;DHT22;58439;51.046;13.692;2023-02-17T07:04:58;9.70;99.50
70820;DHT22;58439;51.046;13.692;2023-02-17T07:07:25;9.80;99.40
70820;DHT22;58439;51.046;13.692;2023-02-17T07:09:52;9.80;99.30
70820;DHT22;58439;51.046;13.692;2023-02-17T07:12:19;9.80;99.20
70820;DHT22;58439;51.046;13.692;2023-02-17T07:14:46;9.80;99.20
70820;DHT22;58439;51.046;13.692;2023-02-17T07:17:13;9.70;99.30
70820;DHT22;58439;51.046;13.692;2023-02-17T07:19:40;9.80;99.30
70820;DHT22;58439;51.046;13.692;2023-02-17T07:22:07;9.80;99.40
70820;DHT22;58439;51.046;13.692;2023-02-17T07:24:35;9.80;99.30
70820;DHT22;58439;51.046;13.692;2023-02-17T07:27:03;9.80;99.30
70820;DHT22;58439;51.046;13.692;2023-02-17T07:29:31;9.80;99.70
70820;DHT22;58439;51.046;13.692;2023-02-17T07:31:58;9.80;99.50
70820;DHT22;58439;51.046;13.692;2023-02-17T07:34:25;9.80;99.60
70820;DHT22;58439;51.046;13.692;2023-02-17T07:36:53;9.80;99.60
70820;DHT22;58439;51.046;13.692;2023-02-17T07:39:20;9.80;99.60
70820;DHT22;58439;51.046;13.692;2023-02-17T07:41:47;9.90;99.60
70820;DHT22;58439;51.046;13.692;2023-02-17T07:44:17;9.90;99.70
70820;DHT22;58439;51.046;13.692;2023-02-17T07:46:44;9.90;99.70
70820;DHT22;58439;51.046;13.692;2023-02-17T07:49:11;9.90;99.60
70820;DHT22;58439;51.046;13.692;2023-02-17T07:51:41;10.00;99.50
70820;DHT22;58439;51.046;13.692;2023-02-17T07:54:08;10.00;99.40
70820;DHT22;58439;51.046;13.692;2023-02-17T07:56:36;10.00;99.40
70820;DHT22;58439;51.046;13.692;2023-02-17T07:59:06;10.10;99.30
70820;DHT22;58439;51.046;13.692;2023-02-17T08:01:34;10.10;99.20
70820;DHT22;58439;51.046;13.692;2023-02-17T08:04:01;10.10;99.20
70820;DHT22;58439;51.046;13.692;2023-02-17T08:06:29;10.10;99.10
70820;DHT22;58439;51.046;13.692;2023-02-17T08:08:57;10.10;99.10
70820;DHT22;58439;51.046;13.692;2023-02-17T08:11:43;10.10;99.10
70820;DHT22;58439;51.046;13.692;2023-02-17T08:14:29;10.20;98.90
70820;DHT22;58439;51.046;13.692;2023-02-17T08:16:57;10.20;98.80
70820;DHT22;58439;51.046;13.692;2023-02-17T08:19:25;10.20;98.80
70820;DHT22;58439;51.046;13.692;2023-02-17T08:21:59;10.20;98.70
70820;DHT22;58439;51.046;13.692;2023-02-17T08:24:26;10.30;98.50
70820;DHT22;58439;51.046;13.692;2023-02-17T08:26:53;10.20;98.60
70820;DHT22;58439;51.046;13.692;2023-02-17T08:29:21;10.20;98.60
70820;DHT22;58439;51.046;13.692;2023-02-17T08:31:50;10.20;98.60
70820;DHT22;58439;51.046;13.692;2023-02-17T08:34:18;10.20;98.50
70820;DHT22;58439;51.046;13.692;2023-02-17T08:36:45;10.20;98.50
70820;DHT22;58439;51.046;13.692;2023-02-17T08:39:14;10.20;98.30
70820;DHT22;58439;51.046;13.692;2023-02-17T08:41:42;10.20;98.20
70820;DHT22;58439;51.046;13.692;2023-02-17T08:44:11;10.20;98.30
70820;DHT22;58439;51.046;13.692;2023-02-17T08:46:41;10.30;98.20
70820;DHT22;58439;51.046;13.692;2023-02-17T08:49:09;10.30;98.20
70820;DHT22;58439;51.046;13.692;2023-02-17T08:51:37;10.30;98.30
70820;DHT22;58439;51.046;13.692;2023-02-17T08:54:04;10.30;98.10
70820;DHT22;58439;51.046;13.692;2023-02-17T08:56:33;10.40;97.90
70820;DHT22;58439;51.046;13.692;2023-02-17T08:59:00;10.40;97.60
70820;DHT22;58439;51.046;13.692;2023-02-17T09:01:27;10.40;97.50
70820;DHT22;58439;51.046;13.692;2023-02-17T09:03:55;10.40;97.40
70820;DHT22;58439;51.046;13.692;2023-02-17T09:06:30;10.40;97.30
70820;DHT22;58439;51.046;13.692;2023-02-17T09:09:00;10.50;97.20
70820;DHT22;58439;51.046;13.692;2023-02-17T09:11:27;10.60;97.10
70820;DHT22;58439;51.046;13.692;2023-02-17T09:13:54;10.60;96.80
70820;DHT22;58439;51.046;13.692;2023-02-17T09:16:21;10.70;96.80
70820;DHT22;58439;51.046;13.692;2023-02-17T09:18:50;10.80;96.20
70820;DHT22;58439;51.046;13.692;2023-02-17T09:21:18;10.90;96.00
70820;DHT22;58439;51.046;13.692;2023-02-17T09:23:47;11.10;95.60
70820;DHT22;58439;51.046;13.692;2023-02-17T09:26:15;11.20;95.10
70820;DHT22;58439;51.046;13.692;2023-02-17T09:28:44;11.40;94.50
70820;DHT22;58439;51.046;13.692;2023-02-17T09:31:16;11.50;94.10
70820;DHT22;58439;51.046;13.692;2023-02-17T09:33:46;11.70;93.70
70820;DHT22;58439;51.046;13.692;2023-02-17T09:36:15;11.80;92.90
70820;DHT22;58439;51.046;13.692;2023-02-17T09:38:47;11.90;92.60
70820;DHT22;58439;51.046;13.692;2023-02-17T09:43:59;12.00;92.00
70820;DHT22;58439;51.046;13.692;2023-02-17T09:49:00;11.90;91.80
70820;DHT22;58439;51.046;13.692;2023-02-17T09:51:35;11.90;92.00
70820;DHT22;58439;51.046;13.692;2023-02-17T09:54:15;12.00;91.70
70820;DHT22;58439;51.046;13.692;2023-02-17T09:56:46;12.00;91.40
70820;DHT22;58439;51.046;13.692;2023-02-17T09:59:21;12.10;90.60
70820;DHT22;58439;51.046;13.692;2023-02-17T10:01:53;12.10;90.40
70820;DHT22;58439;51.046;13.692;2023-02-17T10:04:22;12.00;90.30
70820;DHT22;58439;51.046;13.692;2023-02-17T10:07:02;12.00;90.50
70820;DHT22;58439;51.046;13.692;2023-02-17T10:09:41;12.00;90.70
70820;DHT22;58439;51.046;13.692;2023-02-17T10:12:17;11.90;90.90
70820;DHT22;58439;51.046;13.692;2023-02-17T10:14:52;11.90;91.10
70820;DHT22;58439;51.046;13.692;2023-02-17T10:22:36;11.80;91.20
70820;DHT22;58439;51.046;13.692;2023-02-17T10:25:14;11.70;91.50
70820;DHT22;58439;51.046;13.692;2023-02-17T10:27:52;11.80;91.60
70820;DHT22;58439;51.046;13.692;2023-02-17T10:30:51;11.80;91.70
70820;DHT22;58439;51.046;13.692;2023-02-17T10:33:44;11.90;91.60
70820;DHT22;58439;51.046;13.692;2023-02-17T10:39:46;12.10;91.10
70820;DHT22;58439;51.046;13.692;2023-02-17T10:42:20;12.20;90.70
70820;DHT22;58439;51.046;13.692;2023-02-17T10:44:48;12.20;90.40
70820;DHT22;58439;51.046;13.692;2023-02-17T10:47:18;12.30;90.50
70820;DHT22;58439;51.046;13.692;2023-02-17T10:49:48;12.30;90.40
70820;DHT22;58439;51.046;13.692;2023-02-17T10:52:18;12.30;90.60
70820;DHT22;58439;51.046;13.692;2023-02-17T10:57:18;12.40;90.40
70820;DHT22;58439;51.046;13.692;2023-02-17T10:59:48;12.40;90.20
70820;DHT22;58439;51.046;13.692;2023-02-17T11:02:17;12.50;89.90
70820;DHT22;58439;51.046;13.692;2023-02-17T11:04:51;12.60;89.90
70820;DHT22;58439;51.046;13.692;2023-02-17T11:07:24;12.60;88.80
70820;DHT22;58439;51.046;13.692;2023-02-17T11:09:59;12.60;88.80
70820;DHT22;58439;51.046;13.692;2023-02-17T11:12:32;12.50;89.50
70820;DHT22;58439;51.046;13.692;2023-02-17T11:15:12;12.50;90.10
70820;DHT22;58439;51.046;13.692;2023-02-17T11:17:43;12.40;90.50
70820;DHT22;58439;51.046;13.692;2023-02-17T11:22:42;12.20;91.70
70820;DHT22;58439;51.046;13.692;2023-02-17T11:25:25;12.20;92.40
70820;DHT22;58439;51.046;13.692;2023-02-17T11:27:58;12.20;92.30
70820;DHT22;58439;51.046;13.692;2023-02-17T11:30:27;12.20;92.50
70820;DHT22;58439;51.046;13.692;2023-02-17T11:32:56;12.10;93.10
70820;DHT22;58439;51.046;13.692;2023-02-17T11:35:27;12.00;93.60
70820;DHT22;58439;51.046;13.692;2023-02-17T11:40:50;12.10;93.60
70820;DHT22;58439;51.046;13.692;2023-02-17T11:43:18;12.10;93.60
70820;DHT22;58439;51.046;13.692;2023-02-17T11:48:39;12.30;93.10
70820;DHT22;58439;51.046;13.692;2023-02-17T11:51:27;12.30;92.90
70820;DHT22;58439;51.046;13.692;2023-02-17T11:59:49;12.70;92.40
70820;DHT22;58439;51.046;13.692;2023-02-17T12:05:25;12.90;91.60
70820;DHT22;58439;51.046;13.692;2023-02-17T12:08:45;13.00;91.70
70820;DHT22;58439;51.046;13.692;2023-02-17T12:11:15;13.00;91.80
70820;DHT22;58439;51.046;13.692;2023-02-17T12:17:11;13.10;91.90
70820;DHT22;58439;51.046;13.692;2023-02-17T12:22:30;13.00;91.90
70820;DHT22;58439;51.046;13.692;2023-02-17T12:25:23;13.10;91.80
70820;DHT22;58439;51.046;13.692;2023-02-17T12:28:17;13.10;91.80
70820;DHT22;58439;51.046;13.692;2023-02-17T12:31:03;13.10;91.60
70820;DHT22;58439;51.046;13.692;2023-02-17T12:33:58;13.10;91.90
70820;DHT22;58439;51.046;13.692;2023-02-17T12:36:33;13.20;91.80
70820;DHT22;58439;51.046;13.692;2023-02-17T12:39:05;13.20;91.60
70820;DHT22;58439;51.046;13.692;2023-02-17T12:44:34;13.40;91.40
70820;DHT22;58439;51.046;13.692;2023-02-17T12:47:19;13.40;91.20
70820;DHT22;58439;51.046;13.692;2023-02-17T12:49:55;13.50;91.10
70820;DHT22;58439;51.046;13.692;2023-02-17T12:52:29;13.50;91.50
70820;DHT22;58439;51.046;13.692;2023-02-17T12:55:21;13.50;91.00
70820;DHT22;58439;51.046;13.692;2023-02-17T12:57:56;13.50;91.00
70820;DHT22;58439;51.046;13.692;2023-02-17T13:00:28;13.60;90.90
70820;DHT22;58439;51.046;13.692;2023-02-17T13:03:04;13.60;90.90
70820;DHT22;58439;51.046;13.692;2023-02-17T13:05:34;13.70;90.80
70820;DHT22;58439;51.046;13.692;2023-02-17T13:08:07;13.70;90.90
70820;DHT22;58439;51.046;13.692;2023-02-17T13:10:41;13.70;90.80
70820;DHT22;58439;51.046;13.692;2023-02-17T13:13:10;13.70;90.80
70820;DHT22;58439;51.046;13.692;2023-02-17T13:16:00;13.80;90.40
70820;DHT22;58439;51.046;13.692;2023-02-17T13:18:33;13.80;90.60
70820;DHT22;58439;51.046;13.692;2023-02-17T13:26:31;13.90;90.10
70820;DHT22;58439;51.046;13.692;2023-02-17T13:29:08;13.90;90.00
70820;DHT22;58439;51.046;13.692;2023-02-17T13:34:25;13.90;89.60
70820;DHT22;58439;51.046;13.692;2023-02-17T13:36:55;13.90;89.90
70820;DHT22;58439;51.046;13.692;2023-02-17T13:41:58;13.90;89.20
70820;DHT22;58439;51.046;13.692;2023-02-17T13:44:27;13.90;89.60
70820;DHT22;58439;51.046;13.692;2023-02-17T13:47:16;13.90;89.10
70820;DHT22;58439;51.046;13.692;2023-02-17T13:49:53;13.80;89.30
70820;DHT22;58439;51.046;13.692;2023-02-17T13:52:24;13.70;89.80
70820;DHT22;58439;51.046;13.692;2023-02-17T13:54:57;13.60;90.10
70820;DHT22;58439;51.046;13.692;2023-02-17T13:57:27;13.60;90.20
70820;DHT22;58439;51.046;13.692;2023-02-17T14:00:15;13.60;90.00
70820;DHT22;58439;51.046;13.692;2023-02-17T14:02:51;13.60;90.00
70820;DHT22;58439;51.046;13.692;2023-02-17T14:05:39;13.60;90.00
70820;DHT22;58439;51.046;13.692;2023-02-17T14:08:27;13.60;89.20
70820;DHT22;58439;51.046;13.692;2023-02-17T14:11:04;13.60;89.00
70820;DHT22;58439;51.046;13.692;2023-02-17T14:13:39;13.60;88.90
70820;DHT22;58439;51.046;13.692;2023-02-17T14:16:20;13.60;88.70
70820;DHT22;58439;51.046;13.692;2023-02-17T14:19:07;13.70;88.90
70820;DHT22;58439;51.046;13.692;2023-02-17T14:21:36;13.60;88.90
70820;DHT22;58439;51.046;13.692;2023-02-17T14:24:05;13.60;88.20
70820;DHT22;58439;51.046;13.692;2023-02-17T14:26:41;13.70;87.90
70820;DHT22;58439;51.046;13.692;2023-02-17T14:29:12;13.70;87.80
70820;DHT22;58439;51.046;13.692;2023-02-17T14:31:42;13.70;87.80
70820;DHT22;58439;51.046;13.692;2023-02-17T14:36:54;13.70;87.40
70820;DHT22;58439;51.046;13.692;2023-02-17T14:39:33;13.70;87.70
70820;DHT22;58439;51.046;13.692;2023-02-17T14:42:00;13.70;87.40
70820;DHT22;58439;51.046;13.692;2023-02-17T14:44:28;13.70;87.10
70820;DHT22;58439;51.046;13.692;2023-02-17T14:46:55;13.70;87.20
70820;DHT22;58439;51.046;13.692;2023-02-17T14:49:22;13.70;87.30
70820;DHT22;58439;51.046;13.692;2023-02-17T14:51:49;13.70;87.50
70820;DHT22;58439;51.046;13.692;2023-02-17T14:54:17;13.70;87.60
70820;DHT22;58439;51.046;13.692;2023-02-17T14:59:38;13.70;88.00
70820;DHT22;58439;51.046;13.692;2023-02-17T15:02:11;13.70;87.80
70820;DHT22;58439;51.046;13.692;2023-02-17T15:04:41;13.80;87.90
70820;DHT22;58439;51.046;13.692;2023-02-17T15:07:11;13.80;87.90
70820;DHT22;58439;51.046;13.692;2023-02-17T15:09:40;13.80;87.70
70820;DHT22;58439;51.046;13.692;2023-02-17T15:12:14;13.80;87.70
70820;DHT22;58439;51.046;13.692;2023-02-17T15:14:54;13.80;87.70
70820;DHT22;58439;51.046;13.692;2023-02-17T15:17:21;13.80;88.30
70820;DHT22;58439;51.046;13.692;2023-02-17T15:19:48;13.80;88.40
70820;DHT22;58439;51.046;13.692;2023-02-17T15:22:15;13.80;88.40
70820;DHT22;58439;51.046;13.692;2023-02-17T15:24:45;13.80;88.50
70820;DHT22;58439;51.046;13.692;2023-02-17T15:27:13;13.70;89.00
70820;DHT22;58439;51.046;13.692;2023-02-17T15:29:40;13.70;89.40
70820;DHT22;58439;51.046;13.692;2023-02-17T15:32:14;13.70;89.60
70820;DHT22;58439;51.046;13.692;2023-02-17T15:34:44;13.60;89.90
70820;DHT22;58439;51.046;13.692;2023-02-17T15:37:12;13.60;90.20
70820;DHT22;58439;51.046;13.692;2023-02-17T15:39:39;13.60;90.40
70820;DHT22;58439;51.046;13.692;2023-02-17T15:42:09;13.50;90.60
70820;DHT22;58439;51.046;13.692;2023-02-17T15:44:44;13.50;90.80
70820;DHT22;58439;51.046;13.692;2023-02-17T15:47:17;13.40;91.00
70820;DHT22;58439;51.046;13.692;2023-02-17T15:49:45;13.30;91.40
70820;DHT22;58439;51.046;13.692;2023-02-17T15:52:12;13.30;91.70
70820;DHT22;58439;51.046;13.692;2023-02-17T15:54:40;13.20;91.90
70820;DHT22;58439;51.046;13.692;2023-02-17T15:57:18;13.20;92.40
70820;DHT22;58439;51.046;13.692;2023-02-17T15:59:50;13.20;92.20
70820;DHT22;58439;51.046;13.692;2023-02-17T16:02:23;13.20;92.40
70820;DHT22;58439;51.046;13.692;2023-02-17T16:04:51;13.10;92.50
70820;DHT22;58439;51.046;13.692;2023-02-17T16:07:18;13.10;92.70
70820;DHT22;58439;51.046;13.692;2023-02-17T16:09:45;13.10;93.00
70820;DHT22;58439;51.046;13.692;2023-02-17T16:12:16;13.00;93.10
70820;DHT22;58439;51.046;13.692;2023-02-17T16:14:52;13.00;93.30
70820;DHT22;58439;51.046;13.692;2023-02-17T16:17:19;12.90;93.50
70820;DHT22;58439;51.046;13.692;2023-02-17T16:19:46;12.90;93.60
70820;DHT22;58439;51.046;13.692;2023-02-17T16:22:13;12.90;93.60
70820;DHT22;58439;51.046;13.692;2023-02-17T16:24:40;12.90;93.40
70820;DHT22;58439;51.046;13.692;2023-02-17T16:27:18;12.90;93.40
70820;DHT22;58439;51.046;13.692;2023-02-17T16:30:03;13.00;93.30
70820;DHT22;58439;51.046;13.692;2023-02-17T16:32:41;12.90;93.30
70820;DHT22;58439;51.046;13.692;2023-02-17T16:35:12;12.90;93.40
70820;DHT22;58439;51.046;13.692;2023-02-17T16:37:40;12.90;93.40
70820;DHT22;58439;51.046;13.692;2023-02-17T16:40:14;12.90;93.50
70820;DHT22;58439;51.046;13.692;2023-02-17T16:42:43;12.90;93.40
70820;DHT22;58439;51.046;13.692;2023-02-17T16:45:14;12.90;93.30
70820;DHT22;58439;51.046;13.692;2023-02-17T16:47:46;13.00;93.20
70820;DHT22;58439;51.046;13.692;2023-02-17T16:50:27;12.90;93.20
70820;DHT22;58439;51.046;13.692;2023-02-17T16:53:01;13.00;93.10
70820;DHT22;58439;51.046;13.692;2023-02-17T16:55:31;13.00;93.00
70820;DHT22;58439;51.046;13.692;2023-02-17T16:58:00;13.00;93.00
70820;DHT22;58439;51.046;13.692;2023-02-17T17:00:29;13.00;93.10
70820;DHT22;58439;51.046;13.692;2023-02-17T17:02:58;12.90;93.20
70820;DHT22;58439;51.046;13.692;2023-02-17T17:05:26;12.90;93.30
70820;DHT22;58439;51.046;13.692;2023-02-17T17:07:58;12.90;93.40
70820;DHT22;58439;51.046;13.692;2023-02-17T17:10:33;12.80;93.40
70820;DHT22;58439;51.046;13.692;2023-02-17T17:13:04;12.90;93.30
70820;DHT22;58439;51.046;13.692;2023-02-17T17:15:44;12.90;93.30
70820;DHT22;58439;51.046;13.692;2023-02-17T17:18:30;12.90;93.10
70820;DHT22;58439;51.046;13.692;2023-02-17T17:21:05;13.00;93.10
70820;DHT22;58439;51.046;13.692;2023-02-17T17:23:32;13.10;92.90
70820;DHT22;58439;51.046;13.692;2023-02-17T17:25:59;13.10;92.70
70820;DHT22;58439;51.046;13.692;2023-02-17T17:31:02;13.20;92.40
70820;DHT22;58439;51.046;13.692;2023-02-17T17:33:29;13.20;92.30
70820;DHT22;58439;51.046;13.692;2023-02-17T17:35:56;13.20;92.30
70820;DHT22;58439;51.046;13.692;2023-02-17T17:38:23;13.20;92.30
70820;DHT22;58439;51.046;13.692;2023-02-17T17:40:53;13.30;92.20
70820;DHT22;58439;51.046;13.692;2023-02-17T17:43:22;13.30;92.10
70820;DHT22;58439;51.046;13.692;2023-02-17T17:46:09;13.30;92.10
70820;DHT22;58439;51.046;13.692;2023-02-17T17:48:59;13.40;92.00
70820;DHT22;58439;51.046;13.692;2023-02-17T17:51:28;13.40;91.90
70820;DHT22;58439;51.046;13.692;2023-02-17T17:53:56;13.50;91.80
70820;DHT22;58439;51.046;13.692;2023-02-17T17:56:24;13.50;91.70
70820;DHT22;58439;51.046;13.692;2023-02-17T17:58:53;13.50;91.60
70820;DHT22;58439;51.046;13.692;2023-02-17T18:01:21;13.60;91.50
70820;DHT22;58439;51.046;13.692;2023-02-17T18:03:49;13.50;91.60
70820;DHT22;58439;51.046;13.692;2023-02-17T18:06:26;13.50;91.80
70820;DHT22;58439;51.046;13.692;2023-02-17T18:09:00;13.50;91.90
70820;DHT22;58439;51.046;13.692;2023-02-17T18:11:29;13.50;92.10
70820;DHT22;58439;51.046;13.692;2023-02-17T18:13:58;13.40;92.40
70820;DHT22;58439;51.046;13.692;2023-02-17T18:16:28;13.40;92.80
70820;DHT22;58439;51.046;13.692;2023-02-17T18:19:09;13.40;93.20
70820;DHT22;58439;51.046;13.692;2023-02-17T18:21:38;13.40;93.20
70820;DHT22;58439;51.046;13.692;2023-02-17T18:24:08;13.40;93.60
70820;DHT22;58439;51.046;13.692;2023-02-17T18:26:35;13.30;95.10
70820;DHT22;58439;51.046;13.692;2023-02-17T18:29:03;13.00;97.10
70820;DHT22;58439;51.046;13.692;2023-02-17T18:31:30;12.70;99.10
70820;DHT22;58439;51.046;13.692;2023-02-17T18:33:58;12.40;99.90
70820;DHT22;58439;51.046;13.692;2023-02-17T18:36:25;12.10;99.90
70820;DHT22;58439;51.046;13.692;2023-02-17T18:38:53;11.90;99.90
70820;DHT22;58439;51.046;13.692;2023-02-17T18:41:21;11.70;99.90
70820;DHT22;58439;51.046;13.692;2023-02-17T18:43:54;11.60;99.90
70820;DHT22;58439;51.046;13.692;2023-02-17T18:46:22;11.50;99.90
70820;DHT22;58439;51.046;13.692;2023-02-17T18:48:53;11.40;99.90
70820;DHT22;58439;51.046;13.692;2023-02-17T18:51:21;11.30;99.90
70820;DHT22;58439;51.046;13.692;2023-02-17T18:53:49;11.30;99.90
70820;DHT22;58439;51.046;13.692;2023-02-17T18:56:21;11.20;99.90
70820;DHT22;58439;51.046;13.692;2023-02-17T18:58:50;11.20;99.90
70820;DHT22;58439;51.046;13.692;2023-02-17T19:01:22;11.10;99.90
70820;DHT22;58439;51.046;13.692;2023-02-17T19:03:55;11.20;99.90
70820;DHT22;58439;51.046;13.692;2023-02-17T19:06:24;11.20;99.90
70820;DHT22;58439;51.046;13.692;2023-02-17T19:08:52;11.10;99.90
70820;DHT22;58439;51.046;13.692;2023-02-17T19:11:23;11.10;99.90
70820;DHT22;58439;51.046;13.692;2023-02-17T19:13:51;11.00;99.90
70820;DHT22;58439;51.046;13.692;2023-02-17T19:16:20;11.00;99.90
70820;DHT22;58439;51.046;13.692;2023-02-17T19:18:50;10.90;99.90
70820;DHT22;58439;51.046;13.692;2023-02-17T19:21:18;10.90;99.90
70820;DHT22;58439;51.046;13.692;2023-02-17T19:23:46;10.90;99.90
70820;DHT22;58439;51.046;13.692;2023-02-17T19:26:16;10.90;99.90
70820;DHT22;58439;51.046;13.692;2023-02-17T19:28:44;10.90;99.90
70820;DHT22;58439;51.046;13.692;2023-02-17T19:31:12;10.90;99.90
70820;DHT22;58439;51.046;13.692;2023-02-17T19:33:42;11.00;99.90
70820;DHT22;58439;51.046;13.692;2023-02-17T19:36:11;11.00;99.90
70820;DHT22;58439;51.046;13.692;2023-02-17T19:38:41;11.00;99.90
70820;DHT22;58439;51.046;13.692;2023-02-17T19:41:09;11.00;99.90
70820;DHT22;58439;51.046;13.692;2023-02-17T19:43:37;11.00;99.90
70820;DHT22;58439;51.046;13.692;2023-02-17T19:46:09;11.00;99.90
70820;DHT22;58439;51.046;13.692;2023-02-17T19:48:38;11.00;99.90
70820;DHT22;58439;51.046;13.692;2023-02-17T19:51:07;11.10;99.90
70820;DHT22;58439;51.046;13.692;2023-02-17T19:53:42;11.10;99.90
70820;DHT22;58439;51.046;13.692;2023-02-17T19:56:14;11.10;99.90
70820;DHT22;58439;51.046;13.692;2023-02-17T19:58:46;11.20;99.90
70820;DHT22;58439;51.046;13.692;2023-02-17T20:01:24;11.20;99.90
70820;DHT22;58439;51.046;13.692;2023-02-17T20:03:55;11.20;99.90
70820;DHT22;58439;51.046;13.692;2023-02-17T20:06:24;11.20;99.90
70820;DHT22;58439;51.046;13.692;2023-02-17T20:09:00;11.20;99.90
70820;DHT22;58439;51.046;13.692;2023-02-17T20:11:30;11.20;99.90
70820;DHT22;58439;51.046;13.692;2023-02-17T20:14:04;11.20;99.90
70820;DHT22;58439;51.046;13.692;2023-02-17T20:16:33;11.30;99.90
70820;DHT22;58439;51.046;13.692;2023-02-17T20:19:01;11.30;99.90
70820;DHT22;58439;51.046;13.692;2023-02-17T20:21:33;11.40;99.90
70820;DHT22;58439;51.046;13.692;2023-02-17T20:24:04;11.40;99.90